Renova, Mississippi
Current Conditions -  °F | °C
As of 5:35 PM on Monday 22 Dec 2014 (Local Time) from KRNV Reporting Station
Overcast Overcast  
Wind Chill: 15°   Ceiling: 1700
Heat Index: 15°   Visibility: 10mi
Dew Point: 15°   Wind: 7mph
Humidity: 97%   Direction: 170°S
Pressure: 29.62"   Gusts: NA
Location:  33.7903°N, 90.8559°W
Report Text: KRNV 222335Z AUTO 17006KT 10SM BKN017 BKN025 OVC031 15/15 A2962 RMK AO2 LTG DSNT NE T01520148
Loading
Personal Weather Stations






























Interactive Weather Map New forecast layout! Learn more

10-Day Weather Forecast

Advertisements
Track Severe Weather on mobile